CheckWX is a tool to help pilots better visualize weather data.  It is not intended as a substitute for an official pre-flight weather briefing.

10:10:34 UTC

FMCH TAF
Prince Said Ibrahim International Airport
Moroni, Comoros
TAF FMCH 260500Z 2606/2712 19012KT 9999 FEW020 SCT030 BECMG 2616/2618 10003KT BECMG 2705/2707 20013KT

Jun-26@
06:00 UTC

Jun-26 @ 06:00 UTC

Jun-26@
16:00 UTC

Jun-26 @ 16:00 UTC

TAF FMCH 260500Z 2606/2712 19012KT 9999 FEW020 SCT030
Wind
  • 190° at 12 KTS
Cloud Levels
  • Few at 2,000' AGL
  • Scattered at 3,000' AGL

Jun-26@
16:00 UTC

Jun-26 @ 16:00 UTC

Jun-27@
05:00 UTC

Jun-27 @ 05:00 UTC

BECMG 2616/2618 10003KT

Becoming

Becoming Conditions expected by Wed, Jun 26, 2019 @ 18:00 UTC

Wind
  • 100° at 3 KTS
Cloud Levels
  • Few at 2,000' AGL
  • Scattered at 3,000' AGL

Jun-27@
05:00 UTC

Jun-27 @ 05:00 UTC

Jun-27@
12:00 UTC

Jun-27 @ 12:00 UTC

BECMG 2705/2707 20013KT

Becoming

Becoming Conditions expected by Thu, Jun 27, 2019 @ 07:00 UTC

Wind
  • 200° at 13 KTS
Cloud Levels
  • Few at 2,000' AGL
  • Scattered at 3,000' AGL